NCAR-RAP Real-Time Weather Data

Output produced by METARs form (14 October 2019  22:43 UTC)
found at http://weather.rap.ucar.edu/surface/
 
KAUS 142153Z 16004KT 10SM SCT043 SCT100 BKN200 31/21 A2989 RMK AO2 SLP112 T03110211
KAUS 142053Z 24006KT 10SM FEW038 SCT080 BKN200 31/21 A2990 RMK AO2 SLP112 T03110211 56027
KAUS 141953Z 12005KT 10SM FEW035 SCT075 BKN200 30/22 A2991 RMK AO2 SLP120 T03000217
KAUS 141853Z 00000KT 10SM FEW023 SCT034 BKN200 28/22 A2995 RMK AO2 SLP131 T02830217
KAUS 141753Z 18004KT 10SM SCT019 BKN030 BKN200 28/22 A2998 RMK AO2 SLP142 T02780217 10278 20211 58013
KAUS 141729Z 14004KT 5SM HZ FEW010 SCT015 BKN030 BKN200 27/22 A2999 RMK AO2 T02670222
KAUS 141726Z 00000KT 5SM HZ FEW009 BKN014 BKN030 BKN200 26/22 A2999 RMK AO2 T02610217
KAUS 141714Z 12005KT 1 1/2SM HZ FEW009 BKN014 BKN030 BKN200 26/22 A3000 RMK AO2 SFC VIS 4 T02610217
KAUS 141653Z 14003KT 1 1/2SM HZ OVC009 25/22 A3001 RMK AO2 SFC VIS 4 SLP154 T02500217
KAUS 141553Z VRB03KT 1 1/2SM BR OVC005 23/21 A3002 RMK AO2 SFC VIS 3 SLP158 T02280211
KAUS 141549Z 00000KT 3SM BR OVC005 23/21 A3002 RMK AO2
KAUS 141544Z 00000KT 3/4SM R17L/P6000FT BR OVC005 23/21 A3002 RMK AO2 SFC VIS 2 T02280211
KAUS 141500Z 00000KT 3/4SM R17L/P6000FT BR OVC003 22/21 A3002 RMK AO2 SFC VIS 2 T02220211
KAUS 141453Z 00000KT 1 1/4SM BR OVC003 23/21 A3001 RMK AO2 SFC VIS 2 SLP156 T02280211 53016
KAUS 141353Z 13003KT 1 1/4SM BR BKN003 OVC007 22/21 A2999 RMK AO2 SFC VIS 1 1/2 SLP149 T02170206
KAUS 141329Z 00000KT 1 1/4SM BR BKN003 OVC007 21/21 A2999 RMK AO2 SFC VIS 2 1/2 T02110206
KAUS 141326Z 00000KT 1 1/4SM BR BKN005 OVC009 21/21 A2999 RMK AO2 SFC VIS 5 T02110206
KAUS 141253Z 00000KT 9SM BKN005 OVC009 21/19 A2998 RMK AO2 SLP143 T02110189
KAUS 141153Z 00000KT 10SM BKN010 OVC014 21/18 A2997 RMK AO2 RAB07E18 SLP140 P0000 60000 T02110183 10222 20206 56004
KAUS 141142Z 00000KT 10SM SCT010 BKN014 21/19 A2997 RMK AO2 RAB07E18 P0000 T02110189
KAUS 141053Z 08003KT 10SM OVC015 21/18 A2997 RMK AO2 RAE11 SLP141 P0000 T02060183
KAUS 140953Z 00000KT 10SM -RA BKN017 OVC027 21/17 A2997 RMK AO2 RAB43 SLP140 P0000 T02110172
KAUS 140937Z 00000KT 10SM FEW017 BKN027 OVC055 22/17 A2997 RMK AO2 T02170167
KAUS 140853Z 00000KT 10SM OVC041 22/17 A2998 RMK AO2 SLP143 60000 T02170167 58005
KAUS 140753Z 00000KT 10SM BKN037 OVC047 22/17 A2999 RMK AO2 RAB38E47 SLP145 P0000 T02170167
KAUS 140653Z 00000KT 10SM OVC037 22/16 A2999
KAUS 140603Z 00000KT 10SM OVC037 22/15 A2999
KAUS 140453Z 18003KT 10SM BKN047 BKN060 22/15 A2999 RMK AO2 SLP148 T02170150
KAUS 140353Z 00000KT 10SM OVC050 23/14 A2999 RMK AO2 SLP150 T02280144
KAUS 140253Z 00000KT 10SM OVC048 23/14 A2999 RMK AO2 SLP151 T02280144 53012
KAUS 140153Z 00000KT 10SM FEW045 BKN130 BKN200 22/14 A2998 RMK AO2 SLP147 T02220144
KAUS 140053Z 17003KT 10SM FEW045 BKN130 BKN200 24/14 A2996 RMK AO2 SLP141 T02390139
KAUS 132353Z 18005KT 10SM FEW050 BKN130 BKN200 25/14 A2996 RMK AO2 SLP138 T02500139 10267 20228 55002
KAUS 132253Z 21005KT 10SM FEW050 BKN130 OVC200 26/13 A2995 RMK AO2 SLP135 T02610128
KAUS 132153Z 20006KT 10SM FEW050 OVC150 26/12 A2995 RMK AO2 SLP136 T02610117
KAUS 132053Z 18008KT 10SM BKN050 OVC150 26/11 A2996 RMK AO2 SLP139 T02610106 56026
KAUS 131953Z 16007KT 10SM FEW047 FEW090 BKN110 BKN250 26/09 A2998 RMK AO2 SLP145 T02560094
KAUS 131853Z 19007KT 160V220 10SM SCT040 BKN090 OVC150 25/07 A3000 RMK AO2 SLP154 T02500072
KAUS 131753Z VRB03KT 10SM SCT110 BKN150 BKN250 23/06 A3004 RMK AO2 SLP167 T02280056 10228 20150 58009
KAUS 131653Z VRB04KT 10SM FEW037 BKN090 OVC110 21/06 A3007 RMK AO2 SLP177 T02060056
KAUS 131553Z 00000KT 10SM BKN090 OVC120 18/05 A3007 RMK AO2 SLP178 T01830050
KAUS 131453Z 13004KT 10SM FEW090 OVC110 17/06 A3007 RMK AO2 SLP179 T01720056 53006
KAUS 131353Z 14003KT 10SM BKN043 OVC100 16/06 A3006 RMK AO2 SLP176 BINOVC T01610056
KAUS 131253Z VRB03KT 10SM BKN036 OVC047 16/06 A3005 RMK AO2 SLP171 T01560061
KAUS 131153Z 33004KT 10SM OVC035 15/08 A3005 RMK AO2 SLP172 60000 T01500078 10156 20133 53005
KAUS 131053Z 00000KT 10SM OVC036 15/07 A3004 RMK AO2 SLP169 T01500067
KAUS 130953Z 00000KT 10SM FEW040 SCT050 SCT090 14/08 A3003 RMK AO2 RAB22E51 SLP166 P0000 T01390078
KAUS 130853Z 00000KT 10SM FEW040 SCT060 BKN150 14/07 A3003 RMK AO2 RAB04E16 SLP167 P0000 60000 T01440067 56007
KAUS 130753Z 19003KT 10SM SCT055 BKN120 15/05 A3004 RMK AO2 SLP170 T01500050
KAUS 130653Z 00000KT 10SM SCT110 BKN150 15/05 A3004 RMK AO2 SLP172 T01500050
KAUS 130553Z 00000KT 10SM BKN100 BKN150 14/08 A3005 RMK AO2 SLP175 T01440078 10172 20128 401780122 58008
KAUS 130453Z 00000KT 10SM FEW055 BKN150 BKN200 14/08 A3006 RMK AO2 SLP177 T01390078
KAUS 130353Z 00000KT 10SM FEW055 BKN150 BKN200 14/07 A3009 RMK AO2 SLP186 T01390067
KAUS 130253Z 00000KT 10SM BKN150 BKN200 13/06 A3008 RMK AO2 SLP184 T01280061 55001
KAUS 130153Z 00000KT 10SM FEW060 SCT130 BKN250 15/04 A3007 RMK AO2 SLP183 T01500044
KAUS 130053Z 15004KT 10SM FEW060 BKN130 BKN250 16/03 A3008 RMK AO2 SLP185 T01610033
KAUS 122353Z 10004KT 10SM FEW060 BKN130 BKN250 17/03 A3008 RMK AO2 SLP184 60000 T01720028 10178 20150 56013
KAUS 122253Z 09004KT 10SM FEW060 BKN130 BKN250 17/02 A3008 RMK AO2 SLP185 T01720022